Time;durP1;ratioP1;P1;durP2;ratioP2;P2;SDS_P1;SDS_P2;PMS_P1;PMS_P2;Temp;Humidity;BMP_temperature;BMP_pressure;BME280_temperature;BME280_humidity;BME280_pressure;Samples;Min_cycle;Max_cycle;Signal;HPM_P1;HPM_P2
2024/02/25 00:01:16;;;;;;;6.30;1.70;;;;;;;8.19;100.00;101710.48;105971;1260;63972;-60
2024/02/25 00:03:44;;;;;;;2.50;1.50;;;;;;;8.18;100.00;101709.05;106558;1256;60248;-60
2024/02/25 00:06:12;;;;;;;3.30;1.50;;;;;;;8.17;100.00;101707.97;105970;1256;71901;-59
2024/02/25 00:08:39;;;;;;;2.40;1.60;;;;;;;8.16;100.00;101700.66;106040;1258;65568;-58
2024/02/25 00:11:07;;;;;;;6.80;2.40;;;;;;;8.14;100.00;101702.48;105889;1262;70508;-60
2024/02/25 00:13:34;;;;;;;5.30;2.20;;;;;;;8.13;100.00;101704.45;105834;1257;59614;-60
2024/02/25 00:16:01;;;;;;;3.10;1.40;;;;;;;8.11;100.00;101697.65;105972;1256;59637;-59
2024/02/25 00:18:29;;;;;;;3.80;1.80;;;;;;;8.08;100.00;101695.89;105917;1262;71883;-60
2024/02/25 00:20:57;;;;;;;2.50;1.80;;;;;;;8.05;100.00;101695.02;106082;1256;66900;-58
2024/02/25 00:23:25;;;;;;;4.00;1.90;;;;;;;8.01;100.00;101690.40;106994;1262;71494;-60
2024/02/25 00:25:56;;;;;;;3.80;1.70;;;;;;;7.98;100.00;101685.25;105944;1257;61728;-60
2024/02/25 00:28:24;;;;;;;4.80;1.80;;;;;;;7.96;100.00;101683.11;106610;1255;59767;-59
2024/02/25 00:30:51;;;;;;;3.20;2.20;;;;;;;7.96;100.00;101685.80;105880;1262;73173;-59
2024/02/25 00:33:19;;;;;;;4.40;1.90;;;;;;;7.95;100.00;101683.66;105954;1261;66826;-59
2024/02/25 00:35:47;;;;;;;5.10;2.40;;;;;;;7.95;100.00;101687.95;106015;1259;73398;-60
2024/02/25 00:38:16;;;;;;;6.80;2.90;;;;;;;7.97;100.00;101687.23;105972;1260;62803;-59
2024/02/25 00:40:44;;;;;;;3.60;2.00;;;;;;;7.96;100.00;101687.59;106258;1259;60761;-60
2024/02/25 00:43:26;;;;;;;3.20;2.60;;;;;;;7.95;100.00;101692.23;106081;1256;71446;-59
2024/02/25 00:45:54;;;;;;;4.00;1.90;;;;;;;7.93;100.00;101688.48;105943;1260;65759;-59
2024/02/25 00:48:21;;;;;;;2.90;2.20;;;;;;;7.90;100.00;101686.20;105915;1260;71398;-59
2024/02/25 00:50:49;;;;;;;3.70;1.90;;;;;;;7.88;100.00;101681.56;105862;1262;62471;-61
2024/02/25 00:53:17;;;;;;;3.30;2.20;;;;;;;7.86;100.00;101680.85;105772;1262;59836;-61
2024/02/25 00:55:44;;;;;;;2.40;1.80;;;;;;;7.84;100.00;101672.10;105902;1261;72892;-60
2024/02/25 00:58:12;;;;;;;7.10;2.70;;;;;;;7.81;100.00;101667.85;105981;1258;70609;-59
2024/02/25 01:00:39;;;;;;;5.80;2.50;;;;;;;7.80;100.00;101666.24;105939;1258;70634;-58
2024/02/25 01:03:07;;;;;;;4.00;2.00;;;;;;;7.80;100.00;101665.36;105920;1259;59659;-58
2024/02/25 01:05:35;;;;;;;3.50;2.10;;;;;;;7.80;100.00;101664.46;105968;1256;60317;-59
2024/02/25 01:08:04;;;;;;;2.80;1.40;;;;;;;7.79;100.00;101668.92;105921;1262;75093;-59
2024/02/25 01:10:32;;;;;;;5.60;2.50;;;;;;;7.80;100.00;101675.19;105952;1257;67555;-59
2024/02/25 01:12:59;;;;;;;6.00;2.70;;;;;;;7.79;100.00;101673.04;105983;1268;71510;-59
2024/02/25 01:15:27;;;;;;;4.10;2.00;;;;;;;7.76;100.00;101667.52;105850;1256;59912;-59
2024/02/25 01:17:54;;;;;;;4.40;2.90;;;;;;;7.72;100.00;101671.13;105938;1262;60567;-59
2024/02/25 01:20:22;;;;;;;4.20;2.40;;;;;;;7.69;100.00;101665.59;106009;1259;73535;-61
2024/02/25 01:22:50;;;;;;;5.40;2.80;;;;;;;7.66;100.00;101660.24;106026;1260;66927;-58
2024/02/25 01:25:17;;;;;;;4.50;2.40;;;;;;;7.66;100.00;101660.06;105831;1257;71489;-59
2024/02/25 01:27:45;;;;;;;7.60;3.20;;;;;;;7.67;100.00;101655.23;105831;1260;60298;-58
2024/02/25 01:30:14;;;;;;;3.40;2.10;;;;;;;7.66;100.00;101659.35;105856;1262;60916;-59
2024/02/25 01:32:41;;;;;;;3.10;2.10;;;;;;;7.65;100.00;101656.15;105962;1260;71985;-58
2024/02/25 01:35:13;;;;;;;4.50;2.70;;;;;;;7.65;100.00;101659.20;105927;1262;67284;-59
2024/02/25 01:37:40;;;;;;;4.40;2.90;;;;;;;7.64;100.00;101654.91;106002;1256;75002;-59
2024/02/25 01:40:08;;;;;;;2.70;2.50;;;;;;;7.61;100.00;101654.92;105901;1261;61686;-59
2024/02/25 01:42:37;;;;;;;4.30;3.00;;;;;;;7.56;100.00;101654.60;106260;1259;59698;-59
2024/02/25 01:45:05;;;;;;;4.70;2.00;;;;;;;7.53;100.00;101655.33;106152;1254;72993;-59
2024/02/25 01:47:33;;;;;;;2.70;2.20;;;;;;;7.50;100.00;101656.77;106752;1259;66485;-59
2024/02/25 01:50:00;;;;;;;2.20;1.50;;;;;;;7.49;100.00;101655.70;105980;1262;70815;-58
2024/02/25 01:52:28;;;;;;;3.80;2.30;;;;;;;7.50;100.00;101656.94;105914;1259;60979;-59
2024/02/25 01:54:55;;;;;;;5.70;2.50;;;;;;;7.50;100.00;101654.61;106008;1259;61099;-59
2024/02/25 01:57:23;;;;;;;5.80;3.00;;;;;;;7.49;100.00;101649.44;105997;1259;73068;-59
2024/02/25 01:59:50;;;;;;;3.90;2.80;;;;;;;7.47;100.00;101641.61;105847;1262;67183;-60
2024/02/25 02:02:18;;;;;;;4.30;3.20;;;;;;;7.46;100.00;101634.64;105991;1259;72275;-58
2024/02/25 02:04:46;;;;;;;5.80;2.90;;;;;;;7.42;100.00;101627.33;106680;1260;61304;-55
2024/02/25 02:07:14;;;;;;;9.00;3.10;;;;;;;7.40;100.00;101628.96;106014;1259;61289;-58
2024/02/25 02:09:41;;;;;;;6.40;3.60;;;;;;;7.38;100.00;101629.88;107153;1257;76421;-58
2024/02/25 02:12:09;;;;;;;5.50;3.00;;;;;;;7.37;100.00;101631.84;106024;1254;67742;-60
2024/02/25 02:14:36;;;;;;;3.50;2.80;;;;;;;7.36;100.00;101634.88;105920;1266;76393;-59
2024/02/25 02:17:05;;;;;;;4.40;2.30;;;;;;;7.35;100.00;101636.48;105936;1254;62355;-59
2024/02/25 02:19:33;;;;;;;4.60;2.70;;;;;;;7.36;100.00;101636.13;109067;1253;60025;-60
2024/02/25 02:22:00;;;;;;;3.00;2.60;;;;;;;7.35;100.00;101636.13;109007;1256;74527;-60
2024/02/25 02:24:28;;;;;;;5.00;3.30;;;;;;;7.34;100.00;101627.38;108979;1253;67229;-59
2024/02/25 02:26:55;;;;;;;6.40;3.40;;;;;;;7.33;100.00;101622.56;108918;1253;71714;-59
2024/02/25 02:29:23;;;;;;;2.80;2.40;;;;;;;7.31;100.00;101619.74;105874;1262;60542;-60
2024/02/25 02:31:56;;;;;;;5.60;3.00;;;;;;;7.29;100.00;101616.52;105961;1259;62511;-60
2024/02/25 02:34:24;;;;;;;5.90;3.40;;;;;;;7.26;100.00;101618.13;109002;1253;74631;-60
2024/02/25 02:36:51;;;;;;;3.50;2.30;;;;;;;7.22;100.00;101611.56;106665;1259;64559;-56
2024/02/25 02:39:19;;;;;;;6.00;3.00;;;;;;;7.20;100.00;101614.61;105982;1260;74915;-55
2024/02/25 02:41:46;;;;;;;4.40;2.90;;;;;;;7.19;100.00;101617.64;106003;1259;61824;-57
2024/02/25 02:44:14;;;;;;;5.00;3.10;;;;;;;7.18;100.00;101615.33;106465;1256;61429;-57
2024/02/25 02:46:42;;;;;;;4.90;2.60;;;;;;;7.18;100.00;101610.86;105902;1259;72838;-57
2024/02/25 02:49:09;;;;;;;7.70;3.60;;;;;;;7.20;100.00;101607.64;105898;1272;65515;-57
2024/02/25 02:51:37;;;;;;;5.40;3.40;;;;;;;7.21;100.00;101604.61;105883;1262;72320;-57
2024/02/25 02:54:04;;;;;;;8.10;3.30;;;;;;;7.20;100.00;101596.75;105864;1263;60533;-55
2024/02/25 02:56:32;;;;;;;5.40;2.80;;;;;;;7.18;100.00;101592.30;105946;1260;62225;-56
2024/02/25 02:59:00;;;;;;;5.70;3.80;;;;;;;7.16;100.00;101590.33;106271;1257;73812;-59
2024/02/25 03:01:27;;;;;;;7.30;2.70;;;;;;;7.14;100.00;101584.83;105904;1262;66031;-58
2024/02/25 03:03:55;;;;;;;4.50;3.30;;;;;;;7.12;100.00;101581.45;105964;1257;73753;-59
2024/02/25 03:06:23;;;;;;;4.60;3.10;;;;;;;7.11;100.00;101579.84;106287;1262;61392;-58
2024/02/25 03:08:50;;;;;;;5.10;2.40;;;;;;;7.11;100.00;101581.27;106760;1260;60381;-59
2024/02/25 03:11:18;;;;;;;5.20;3.00;;;;;;;7.11;100.00;101576.80;105975;1255;73604;-58
2024/02/25 03:13:46;;;;;;;3.10;2.20;;;;;;;7.11;100.00;101577.52;105944;1262;67446;-58
2024/02/25 03:16:13;;;;;;;4.00;3.50;;;;;;;7.11;100.00;101578.59;105940;1256;74685;-58
2024/02/25 03:18:41;;;;;;;3.90;2.40;;;;;;;7.10;100.00;101576.80;105905;1259;60575;-58
2024/02/25 03:21:08;;;;;;;3.30;2.80;;;;;;;7.10;100.00;101580.19;105978;1262;60803;-58
2024/02/25 03:23:36;;;;;;;5.40;3.60;;;;;;;7.08;100.00;101580.02;105868;1276;72778;-58
2024/02/25 03:26:04;;;;;;;7.50;3.30;;;;;;;7.05;100.00;101575.77;105894;1257;64555;-58
2024/02/25 03:28:32;;;;;;;3.90;2.90;;;;;;;7.04;100.00;101579.52;105989;1259;71552;-57
2024/02/25 03:30:59;;;;;;;5.30;2.90;;;;;;;7.02;100.00;101580.41;105987;1266;61558;-58
2024/02/25 03:33:27;;;;;;;4.50;2.60;;;;;;;7.01;100.00;101579.35;105856;1262;60518;-58
2024/02/25 03:35:55;;;;;;;7.90;3.40;;;;;;;7.01;100.00;101582.20;106431;1260;73828;-58
2024/02/25 03:38:23;;;;;;;5.60;3.60;;;;;;;7.00;100.00;101580.95;105971;1262;67206;-57
2024/02/25 03:40:50;;;;;;;5.50;3.80;;;;;;;7.01;100.00;101582.02;105899;1264;74783;-57
2024/02/25 03:43:18;;;;;;;6.40;3.90;;;;;;;7.03;100.00;101577.02;105991;1260;60370;-57
2024/02/25 03:45:45;;;;;;;5.40;3.40;;;;;;;7.03;100.00;101578.63;105996;1259;62137;-57
2024/02/25 03:48:13;;;;;;;3.80;3.30;;;;;;;7.02;100.00;101573.63;105939;1254;72975;-58
2024/02/25 03:50:41;;;;;;;4.60;3.50;;;;;;;7.00;100.00;101573.28;105955;1263;66116;-57
2024/02/25 03:53:09;;;;;;;5.90;2.80;;;;;;;6.97;100.00;101571.68;105798;1261;73567;-57
2024/02/25 03:55:36;;;;;;;5.10;4.10;;;;;;;6.95;100.00;101566.36;105830;1259;64028;-57
2024/02/25 03:58:04;;;;;;;6.50;3.90;;;;;;;6.94;100.00;101571.71;105859;1255;60292;-57
2024/02/25 04:00:31;;;;;;;6.30;3.70;;;;;;;6.93;100.00;101571.00;105944;1260;76160;-57
2024/02/25 04:02:59;;;;;;;3.80;3.20;;;;;;;6.93;100.00;101570.99;106009;1259;66987;-58
2024/02/25 04:05:26;;;;;;;5.70;3.80;;;;;;;6.95;100.00;101565.99;105906;1259;71458;-57
2024/02/25 04:07:56;;;;;;;7.90;4.10;;;;;;;6.98;100.00;101568.46;106636;1259;60665;-58
2024/02/25 04:10:25;;;;;;;6.00;3.60;;;;;;;6.99;100.00;101564.17;105920;1259;61704;-58
2024/02/25 04:12:52;;;;;;;5.60;4.20;;;;;;;6.99;100.00;101567.74;105923;1254;73165;-56
2024/02/25 04:15:20;;;;;;;3.70;3.20;;;;;;;6.99;100.00;101565.42;106023;1266;66806;-58
2024/02/25 04:17:48;;;;;;;5.40;4.10;;;;;;;6.97;100.00;101569.03;106035;1263;71778;-57
2024/02/25 04:20:16;;;;;;;5.90;4.30;;;;;;;6.95;100.00;101567.60;106087;1257;60383;-57
2024/02/25 04:22:44;;;;;;;7.80;2.90;;;;;;;6.94;100.00;101575.82;105894;1257;60374;-57
2024/02/25 04:25:11;;;;;;;8.00;4.30;;;;;;;6.93;100.00;101573.14;105961;1254;73946;-57
2024/02/25 04:27:39;;;;;;;7.40;3.80;;;;;;;6.92;100.00;101570.29;105974;1258;67247;-56
2024/02/25 04:30:07;;;;;;;5.90;3.90;;;;;;;6.93;100.00;101571.35;105950;1254;74980;-58
2024/02/25 04:32:39;;;;;;;6.10;4.10;;;;;;;6.95;100.00;101575.27;106515;1267;61308;-57
2024/02/25 04:35:07;;;;;;;9.30;4.30;;;;;;;6.97;100.00;101578.85;108593;1258;59540;-58
2024/02/25 04:37:35;;;;;;;6.40;5.20;;;;;;;6.97;100.00;101579.02;105869;1265;74753;-56
2024/02/25 04:40:03;;;;;;;5.50;4.20;;;;;;;6.96;100.00;101578.49;105960;1264;67152;-56
2024/02/25 04:42:30;;;;;;;8.20;5.20;;;;;;;6.95;100.00;101576.00;106041;1257;71109;-56
2024/02/25 04:44:58;;;;;;;7.90;4.30;;;;;;;6.93;100.00;101575.27;106126;1259;62918;-58
2024/02/25 04:47:25;;;;;;;5.80;4.50;;;;;;;6.92;100.00;101569.03;105937;1260;60398;-58
2024/02/25 04:49:53;;;;;;;8.30;4.30;;;;;;;6.91;100.00;101572.61;108615;1261;72223;-58
2024/02/25 04:52:21;;;;;;;4.70;3.90;;;;;;;6.90;100.00;101571.17;105975;1259;66807;-57
2024/02/25 04:54:48;;;;;;;5.10;3.80;;;;;;;6.91;100.00;101571.35;105996;1261;73239;-58
2024/02/25 04:57:16;;;;;;;7.00;3.50;;;;;;;6.92;100.00;101574.75;105732;1263;61398;-58
2024/02/25 04:59:43;;;;;;;7.90;4.30;;;;;;;6.92;100.00;101573.14;105899;1257;61196;-57
2024/02/25 05:02:11;;;;;;;4.00;3.30;;;;;;;6.92;100.00;101572.24;106577;1256;73873;-57
2024/02/25 05:04:40;;;;;;;4.90;3.70;;;;;;;6.93;100.00;101570.29;105986;1260;65722;-57
2024/02/25 05:07:08;;;;;;;6.40;4.30;;;;;;;6.91;100.00;101568.14;106064;1260;71799;-58
2024/02/25 05:09:35;;;;;;;5.80;4.10;;;;;;;6.89;100.00;101566.73;105892;1262;60703;-58
2024/02/25 05:12:03;;;;;;;6.90;4.30;;;;;;;6.88;100.00;101564.43;105916;1262;60325;-58
2024/02/25 05:14:31;;;;;;;5.00;4.30;;;;;;;6.85;100.00;101564.97;107366;1253;73752;-58
2024/02/25 05:16:59;;;;;;;6.50;4.00;;;;;;;6.83;100.00;101566.39;107198;1259;67188;-58
2024/02/25 05:19:26;;;;;;;3.70;2.70;;;;;;;6.81;100.00;101573.17;105874;1260;73243;-58
2024/02/25 05:21:54;;;;;;;7.90;3.60;;;;;;;6.82;100.00;101579.96;105967;1257;60491;-58
2024/02/25 05:24:21;;;;;;;5.30;3.20;;;;;;;6.83;100.00;101581.55;105926;1259;62418;-58
2024/02/25 05:26:49;;;;;;;4.90;3.00;;;;;;;6.84;100.00;101582.82;106040;1262;71578;-58
2024/02/25 05:29:16;;;;;;;3.00;2.70;;;;;;;6.85;100.00;101588.34;105947;1259;66909;-58
2024/02/25 05:31:44;;;;;;;5.80;4.00;;;;;;;6.87;100.00;101582.45;105991;1260;72368;-57
2024/02/25 05:34:11;;;;;;;4.90;2.40;;;;;;;6.88;100.00;101581.02;106084;1264;60390;-57
2024/02/25 05:36:39;;;;;;;4.00;3.10;;;;;;;6.89;100.00;101586.19;106075;1260;60492;-57
2024/02/25 05:39:08;;;;;;;4.90;2.90;;;;;;;6.88;100.00;101591.20;106033;1260;74001;-57
2024/02/25 05:41:36;;;;;;;3.30;2.40;;;;;;;6.86;100.00;101596.73;107386;1259;65655;-56
2024/02/25 05:44:03;;;;;;;5.90;3.10;;;;;;;6.84;100.00;101597.63;105902;1260;71721;-57
2024/02/25 05:46:31;;;;;;;3.40;2.50;;;;;;;6.82;100.00;101592.09;105921;1259;61506;-57
2024/02/25 05:48:58;;;;;;;3.40;2.10;;;;;;;6.81;100.00;101592.80;105842;1260;60451;-57
2024/02/25 05:51:26;;;;;;;4.20;2.80;;;;;;;6.82;100.00;101592.80;108897;1257;74105;-57
2024/02/25 05:53:53;;;;;;;5.00;3.00;;;;;;;6.82;100.00;101592.80;108939;1256;67558;-57
2024/02/25 05:56:21;;;;;;;6.10;2.80;;;;;;;6.83;100.00;101590.48;108566;1257;72779;-58
2024/02/25 05:58:49;;;;;;;3.70;2.80;;;;;;;6.85;100.00;101595.66;105932;1260;60508;-57
2024/02/25 06:01:17;;;;;;;3.20;2.30;;;;;;;6.86;100.00;101597.08;105863;1256;60557;-59
2024/02/25 06:03:45;;;;;;;4.20;2.60;;;;;;;6.87;100.00;101596.38;105925;1260;72623;-58
2024/02/25 06:06:14;;;;;;;5.00;3.10;;;;;;;6.88;100.00;101593.34;106115;1263;66854;-58
2024/02/25 06:08:41;;;;;;;3.50;2.50;;;;;;;6.87;100.00;101594.23;107022;1260;70597;-58
2024/02/25 06:11:09;;;;;;;4.00;1.90;;;;;;;6.85;100.00;101591.02;105822;1261;63516;-58
2024/02/25 06:13:36;;;;;;;7.00;2.70;;;;;;;6.83;100.00;101586.20;105936;1264;60405;-58
2024/02/25 06:16:04;;;;;;;3.20;1.70;;;;;;;6.81;100.00;101584.06;105946;1261;73702;-59
2024/02/25 06:18:31;;;;;;;2.70;1.60;;;;;;;6.78;100.00;101580.34;105933;1257;67440;-58
2024/02/25 06:20:59;;;;;;;4.00;1.80;;;;;;;6.77;100.00;101576.60;106108;1270;71535;-59
2024/02/25 06:23:27;;;;;;;3.70;2.00;;;;;;;6.76;100.00;101577.85;105973;1256;60521;-59
2024/02/25 06:25:57;;;;;;;3.20;1.90;;;;;;;6.77;100.00;101574.81;106137;1259;60426;-59
2024/02/25 06:28:25;;;;;;;3.40;1.70;;;;;;;6.78;100.00;101575.35;105846;1262;73543;-59
2024/02/25 06:30:52;;;;;;;3.70;1.80;;;;;;;6.79;100.00;101573.92;105915;1260;67206;-59
2024/02/25 06:33:20;;;;;;;2.60;1.60;;;;;;;6.80;100.00;101579.08;105957;1260;71383;-59
2024/02/25 06:35:50;;;;;;;3.50;1.70;;;;;;;6.79;100.00;101573.39;105951;1260;60558;-59
2024/02/25 06:38:17;;;;;;;2.00;1.50;;;;;;;6.78;100.00;101576.79;106369;1260;60461;-58
2024/02/25 06:40:46;;;;;;;1.80;1.20;;;;;;;6.76;100.00;101574.99;105855;1256;73867;-59
2024/02/25 06:43:13;;;;;;;3.40;1.40;;;;;;;6.75;100.00;101568.92;106007;1260;65562;-57
2024/02/25 06:45:41;;;;;;;2.90;1.30;;;;;;;6.74;100.00;101565.18;105888;1262;71332;-58
2024/02/25 06:48:08;;;;;;;1.70;1.40;;;;;;;6.73;100.00;101563.94;106035;1254;60458;-58
2024/02/25 06:50:36;;;;;;;2.40;1.40;;;;;;;6.73;100.00;101558.58;106289;1259;59641;-58
2024/02/25 06:53:03;;;;;;;10.00;2.00;;;;;;;6.73;100.00;101554.48;106089;1259;73924;-60
2024/02/25 06:55:31;;;;;;;1.90;1.10;;;;;;;6.74;100.00;101548.59;106003;1267;67121;-60
2024/02/25 06:57:58;;;;;;;1.70;1.00;;;;;;;6.75;100.00;101548.41;105921;1269;71952;-59
2024/02/25 07:00:25;;;;;;;2.50;1.40;;;;;;;6.77;100.00;101551.44;106094;1260;60319;-60
2024/02/25 07:02:54;;;;;;;2.80;0.90;;;;;;;6.77;100.00;101554.48;105975;1259;60441;-60
2024/02/25 07:05:22;;;;;;;3.60;1.00;;;;;;;6.78;100.00;101560.18;106140;1255;73905;-60
2024/02/25 07:07:50;;;;;;;1.70;1.00;;;;;;;6.78;100.00;101566.25;106063;1266;65958;-59
2024/02/25 07:10:18;;;;;;;2.30;1.00;;;;;;;6.76;100.00;101565.00;106044;1262;70232;-59
2024/02/25 07:12:46;;;;;;;2.00;1.20;;;;;;;6.75;100.00;101565.36;105973;1260;61316;-60
2024/02/25 07:15:13;;;;;;;1.60;1.00;;;;;;;6.74;100.00;101561.61;106023;1261;60633;-59
2024/02/25 07:17:46;;;;;;;3.80;0.90;;;;;;;6.71;100.00;101562.35;106315;1259;72626;-60
2024/02/25 07:20:14;;;;;;;2.40;1.10;;;;;;;6.69;100.00;101560.58;106073;1261;67017;-57
2024/02/25 07:22:42;;;;;;;2.10;1.10;;;;;;;6.68;100.00;101563.25;105970;1260;71447;-58
2024/02/25 07:25:09;;;;;;;1.90;0.90;;;;;;;6.66;100.00;101563.42;105874;1263;60565;-58
2024/02/25 07:27:37;;;;;;;1.10;0.80;;;;;;;6.65;100.00;101566.10;106086;1259;60505;-58
2024/02/25 07:30:05;;;;;;;1.00;0.80;;;;;;;6.63;100.00;101567.54;105958;1254;73950;-59
2024/02/25 07:32:32;;;;;;;3.40;0.90;;;;;;;6.62;100.00;101572.02;106042;1261;67138;-58
2024/02/25 07:35:00;;;;;;;2.70;0.90;;;;;;;6.62;100.00;101568.63;106166;1257;71462;-58
2024/02/25 07:37:27;;;;;;;2.40;0.90;;;;;;;6.62;100.00;101568.81;105939;1257;60388;-59
2024/02/25 07:39:55;;;;;;;2.60;0.90;;;;;;;6.63;100.00;101567.38;106549;1259;62150;-59
2024/02/25 07:42:22;;;;;;;0.90;0.80;;;;;;;6.64;100.00;101570.04;105983;1261;73821;-58
2024/02/25 07:44:50;;;;;;;1.90;0.80;;;;;;;6.66;100.00;101569.85;105886;1260;66021;-59
2024/02/25 07:47:17;;;;;;;2.30;0.90;;;;;;;6.68;100.00;101565.39;106156;1261;71129;-59
2024/02/25 07:49:45;;;;;;;1.90;0.90;;;;;;;6.71;100.00;101571.98;105911;1269;61483;-59
2024/02/25 07:52:12;;;;;;;1.10;0.80;;;;;;;6.75;100.00;101576.60;105859;1260;60528;-59
2024/02/25 07:54:40;;;;;;;1.30;0.70;;;;;;;6.80;100.00;101584.45;105915;1267;76220;-59
2024/02/25 07:57:08;;;;;;;1.20;0.80;;;;;;;6.83;100.00;101588.89;105892;1270;64852;-59
2024/02/25 07:59:36;;;;;;;1.40;0.80;;;;;;;6.84;100.00;101591.91;106117;1261;71433;-60
2024/02/25 08:02:03;;;;;;;1.50;0.90;;;;;;;6.86;100.00;101591.73;105885;1258;60410;-58
2024/02/25 08:04:37;;;;;;;1.50;0.90;;;;;;;6.87;100.00;101592.27;106026;1263;60095;-58
2024/02/25 08:07:05;;;;;;;1.60;0.80;;;;;;;6.88;100.00;101596.91;105893;1262;75975;-59
2024/02/25 08:09:33;;;;;;;5.00;1.00;;;;;;;6.89;100.00;101591.90;105995;1257;67794;-59
2024/02/25 08:12:00;;;;;;;1.20;0.80;;;;;;;6.89;100.00;101593.14;105873;1257;73126;-58
2024/02/25 08:14:28;;;;;;;2.10;1.00;;;;;;;6.91;100.00;101598.48;106010;1258;60956;-59
2024/02/25 08:16:55;;;;;;;2.20;0.80;;;;;;;6.96;100.00;101597.77;105929;1256;61323;-59
2024/02/25 08:19:23;;;;;;;2.00;1.10;;;;;;;7.00;100.00;101607.02;105975;1258;73817;-59
2024/02/25 08:21:51;;;;;;;1.30;0.80;;;;;;;7.04;100.00;101617.89;106197;1257;65762;-58
2024/02/25 08:24:18;;;;;;;1.30;0.90;;;;;;;7.07;100.00;101614.31;106687;1262;73605;-59
2024/02/25 08:26:46;;;;;;;2.20;0.90;;;;;;;7.10;100.00;101613.77;105873;1270;60537;-59
2024/02/25 08:29:13;;;;;;;3.60;1.10;;;;;;;7.12;100.00;101613.77;108856;1257;59391;-59
2024/02/25 08:31:42;;;;;;;2.30;1.10;;;;;;;7.14;100.00;101608.75;108929;1256;74080;-59
2024/02/25 08:34:10;;;;;;;2.50;1.00;;;;;;;7.15;100.00;101607.12;108820;1261;66810;-58
2024/02/25 08:36:39;;;;;;;2.10;0.80;;;;;;;7.17;100.00;101602.30;106439;1260;71384;-59
2024/02/25 08:39:07;;;;;;;2.50;0.90;;;;;;;7.18;100.00;101595.15;106311;1263;60393;-59
2024/02/25 08:41:35;;;;;;;2.20;1.10;;;;;;;7.19;100.00;101591.75;108874;1257;60026;-59
2024/02/25 08:44:02;;;;;;;3.70;0.90;;;;;;;7.19;100.00;101595.67;108898;1257;76009;-59
2024/02/25 08:46:30;;;;;;;2.80;0.90;;;;;;;7.20;100.00;101592.65;106795;1260;65857;-58
2024/02/25 08:48:58;;;;;;;2.30;0.80;;;;;;;7.22;100.00;101592.45;105966;1261;71720;-58
2024/02/25 08:51:25;;;;;;;2.10;0.90;;;;;;;7.26;100.00;101594.21;108946;1256;61010;-58
2024/02/25 08:53:53;;;;;;;2.20;0.80;;;;;;;7.30;100.00;101595.98;107834;1260;61409;-59
2024/02/25 08:56:21;;;;;;;2.40;1.10;;;;;;;7.34;100.00;101597.73;108556;1257;73922;-59
2024/02/25 08:58:49;;;;;;;2.80;0.90;;;;;;;7.38;100.00;101594.69;105906;1273;66917;-58
2024/02/25 09:01:17;;;;;;;4.20;1.50;;;;;;;7.40;100.00;101597.34;105838;1268;73428;-59
2024/02/25 09:03:44;;;;;;;1.40;0.80;;;;;;;7.41;100.00;101597.87;106796;1262;61067;-59
2024/02/25 09:06:18;;;;;;;7.60;0.90;;;;;;;7.42;100.00;101598.40;105966;1261;60658;-59
2024/02/25 09:08:46;;;;;;;1.60;0.90;;;;;;;7.43;100.00;101603.94;106429;1257;73914;-60
2024/02/25 09:11:14;;;;;;;4.50;0.80;;;;;;;7.44;100.00;101604.11;105835;1257;64666;-60
2024/02/25 09:13:42;;;;;;;4.70;1.00;;;;;;;7.43;100.00;101602.15;106045;1260;73186;-59
2024/02/25 09:16:10;;;;;;;2.10;0.90;;;;;;;7.41;100.00;101597.52;105994;1268;64692;-59
2024/02/25 09:18:37;;;;;;;2.40;1.00;;;;;;;7.39;100.00;101597.36;105807;1258;61395;-59
2024/02/25 09:21:05;;;;;;;1.80;1.00;;;;;;;7.39;100.00;101590.94;105916;1260;71573;-58
2024/02/25 09:23:33;;;;;;;1.10;0.80;;;;;;;7.40;100.00;101592.00;106014;1263;69341;-59
2024/02/25 09:26:00;;;;;;;2.40;0.80;;;;;;;7.42;100.00;101585.54;105929;1257;75190;-59
2024/02/25 09:28:28;;;;;;;2.30;0.80;;;;;;;7.44;100.00;101585.71;105856;1264;60442;-59
2024/02/25 09:30:55;;;;;;;1.90;0.80;;;;;;;7.48;100.00;101584.80;105993;1260;60742;-58
2024/02/25 09:33:23;;;;;;;3.30;0.90;;;;;;;7.52;100.00;101583.16;105840;1257;74222;-59
2024/02/25 09:35:53;;;;;;;1.30;0.80;;;;;;;7.58;100.00;101579.19;106208;1257;69194;-59
2024/02/25 09:38:22;;;;;;;2.30;0.90;;;;;;;7.61;100.00;101583.45;106006;1257;73143;-59
2024/02/25 09:40:51;;;;;;;2.30;0.80;;;;;;;7.63;100.00;101577.01;105917;1257;61439;-59
2024/02/25 09:43:18;;;;;;;2.90;0.90;;;;;;;7.64;100.00;101576.11;106091;1255;60508;-60
2024/02/25 09:45:46;;;;;;;1.80;0.90;;;;;;;7.64;100.00;101571.48;105909;1254;72664;-59
2024/02/25 09:48:13;;;;;;;2.20;1.40;;;;;;;7.65;100.00;101571.83;106031;1259;68426;-60
2024/02/25 09:50:41;;;;;;;3.10;1.00;;;;;;;7.67;100.00;101571.97;106062;1254;71415;-58
2024/02/25 09:53:10;;;;;;;1.60;0.80;;;;;;;7.69;100.00;101570.52;106336;1258;60444;-57
2024/02/25 09:55:38;;;;;;;3.70;1.20;;;;;;;7.70;100.00;101577.14;105826;1259;191220;-58
2024/02/25 09:59:46;;;;;;;2.80;1.00;;;;;;;7.75;100.00;101660.92;102954;1295;601228;-60
2024/02/25 10:02:14;;;;;;;3.60;0.90;;;;;;;7.75;100.00;101693.24;105232;1270;63179;-60
2024/02/25 10:04:42;;;;;;;3.40;1.10;;;;;;;7.77;100.00;101676.09;105242;1269;61113;-59
2024/02/25 10:07:14;;;;;;;1.70;1.00;;;;;;;7.80;100.00;101663.75;105983;1272;74482;-59
2024/02/25 10:09:42;;;;;;;1.80;1.10;;;;;;;7.84;100.00;101660.84;105383;1272;66138;-59
2024/02/25 10:12:09;;;;;;;2.80;1.40;;;;;;;7.88;100.00;101652.60;105505;1268;73170;-59
2024/02/25 10:14:37;;;;;;;5.10;1.50;;;;;;;7.87;100.00;101646.70;105921;1264;59572;-59
2024/02/25 10:17:05;;;;;;;2.20;1.10;;;;;;;7.88;100.00;101640.09;105457;1280;59822;-59
2024/02/25 10:19:33;;;;;;;2.10;1.10;;;;;;;7.87;100.00;101627.58;105520;1267;71104;-59
2024/02/25 10:22:11;;;;;;;1.90;0.80;;;;;;;7.87;100.00;101617.58;105574;1276;65872;-59
2024/02/25 10:24:40;;;;;;;2.10;1.10;;;;;;;7.85;100.00;101619.90;105566;1266;71862;-59
2024/02/25 10:27:14;;;;;;;1.50;0.90;;;;;;;7.84;100.00;101610.61;105559;1260;60530;-60
2024/02/25 10:29:52;;;;;;;2.70;0.90;;;;;;;7.83;100.00;101606.69;106100;1267;60150;-59
2024/02/25 10:32:30;;;;;;;3.80;0.90;;;;;;;7.86;100.00;101606.49;105918;1266;73110;-58
2024/02/25 10:35:00;;;;;;;1.60;0.80;;;;;;;7.90;100.00;101606.46;106236;1258;67366;-58
2024/02/25 10:37:28;;;;;;;1.60;0.80;;;;;;;7.98;100.00;101607.64;106461;1257;72877;-58
2024/02/25 10:40:05;;;;;;;3.40;3.00;;;;;;;8.05;100.00;101606.88;105870;1263;62349;-58
2024/02/25 10:42:40;;;;;;;1.80;1.00;;;;;;;8.15;100.00;101616.08;106176;1259;60466;-58
2024/02/25 10:45:08;;;;;;;7.90;3.20;;;;;;;8.24;100.00;101618.15;106409;1254;75717;-59
2024/02/25 10:47:36;;;;;;;4.30;2.80;;;;;;;8.33;100.00;101625.25;107341;1254;67013;-59
2024/02/25 10:50:04;;;;;;;4.50;2.50;;;;;;;8.43;100.00;101628.92;106393;1256;76143;-60
2024/02/25 10:52:31;;;;;;;2.90;1.30;;;;;;;8.50;100.00;101641.02;106132;1255;60507;-58
2024/02/25 10:54:59;;;;;;;8.20;7.40;;;;;;;8.52;100.00;101647.96;106259;1251;60157;-59
2024/02/25 10:57:26;;;;;;;2.60;2.10;;;;;;;8.50;100.00;101650.14;106195;1251;75110;-59
2024/02/25 10:59:54;;;;;;;15.50;11.60;;;;;;;8.45;100.00;101638.91;106144;1257;69480;-58
2024/02/25 11:02:23;;;;;;;15.20;8.40;;;;;;;8.41;100.00;101643.61;105963;1260;71231;-60
2024/02/25 11:04:50;;;;;;;4.50;3.30;;;;;;;8.39;100.00;101641.30;106379;1258;60448;-60
2024/02/25 11:07:19;;;;;;;3.40;3.10;;;;;;;8.38;100.00;101633.80;106145;1263;61219;-58
2024/02/25 11:09:48;;;;;;;5.70;2.00;;;;;;;8.37;100.00;101629.51;105947;1251;73515;-59
2024/02/25 11:12:25;;;;;;;1.60;1.00;;;;;;;8.37;100.00;101630.58;108903;1260;67463;-59
2024/02/25 11:15:01;;;;;;;3.80;1.20;;;;;;;8.39;100.00;101631.65;106165;1257;74076;-59
2024/02/25 11:17:35;;;;;;;3.00;1.00;;;;;;;8.42;100.00;101629.48;106611;1261;60454;-59
2024/02/25 11:20:08;;;;;;;1.50;0.70;;;;;;;8.44;100.00;101629.61;106127;1251;61226;-60
2024/02/25 11:22:44;;;;;;;5.00;1.00;;;;;;;8.47;100.00;101629.23;108696;1258;75275;-60